F/V Atalante 3 — FHUX — position and weather

sailwx.info

Track history (hours):
 
Tides and Currents Weather Stations Pressure Air Temp Water Temp Dewpoint Dewpoint Depression Visibility Wind Speed Wind Dir Waves Ship Positions

F/V Atalante 3

Last reported at 2018-Jun-25 07:46 UTC. Time now 2018-Jun-25 15:50 UTC.
Position N 45°21' W 001°21'.

Length 14 m.

Type: Other ship. MMSI: 228211000.

Date/timePositionNaut miles runAvg speedWind from/ knotsBaromVisibWave heightAir tempDewpointWater temp
2018-Jun-25 07:46N 45°21' W 001°21'4 9.2
2018-Jun-25 07:17N 45°22' W 001°15'1 2.5
2018-Jun-25 06:52N 45°21' W 001°14'1 1.7
2018-Jun-25 06:13N 45°22' W 001°15'1 2.6
2018-Jun-25 05:59N 45°22' W 001°16'1 1.4
2018-Jun-25 05:29N 45°22' W 001°17'1 2.4
2018-Jun-25 04:57N 45°22' W 001°15'1 1.4
2018-Jun-25 04:30N 45°22' W 001°16'4 1.1
2018-Jun-25 01:06N 45°20' W 001°21'0 0.0
2018-Jun-25 00:56N 45°20' W 001°21'0 0.0
2018-Jun-24 22:57N 45°20' W 001°21'0 0.0
2018-Jun-24 22:26N 45°20' W 001°21'0 0.0
2018-Jun-24 21:58N 45°20' W 001°21'0 0.0
2018-Jun-24 21:24N 45°20' W 001°21'2 0.2
2018-Jun-24 11:03N 45°22' W 001°19'3 0.7
2018-Jun-24 05:46N 45°19' W 001°16'1 2.5
2018-Jun-24 05:27N 45°20' W 001°16'1 1.0
2018-Jun-24 04:23N 45°19' W 001°15'4 6.8
2018-Jun-24 03:45N 45°24' W 001°16'310.1
2018-Jun-24 03:25N 45°27' W 001°15'410.2
2018-Jun-24 03:00N 45°31' W 001°13'510.5
2018-Jun-24 02:30N 45°34' W 001°06'5 9.2
2018-Jun-24 02:00N 45°37' W 001°02'0 0.1
2018-Jun-24 01:30N 45°37' W 001°02'0 0.0
2018-Jun-24 01:00N 45°37' W 001°02'0 0.0
2018-Jun-24 00:30N 45°37' W 001°02'0 0.0
2018-Jun-24 00:00N 45°37' W 001°02'0 0.0
2018-Jun-23 23:30N 45°37' W 001°02'0 0.0
2018-Jun-23 23:00N 45°37' W 001°02'0 0.0
2018-Jun-23 22:27N 45°37' W 001°02'0 0.0
2018-Jun-23 22:00N 45°37' W 001°02'0 0.0
2018-Jun-23 21:28N 45°37' W 001°02'0 0.0
2018-Jun-23 21:00N 45°37' W 001°02'0 0.0
2018-Jun-23 20:30N 45°37' W 001°02'0 0.0
2018-Jun-23 20:00N 45°37' W 001°02'0 0.0
2018-Jun-23 19:30N 45°37' W 001°02'0 0.0
2018-Jun-23 19:00N 45°37' W 001°02'0 0.0
2018-Jun-23 18:30N 45°37' W 001°02'0 0.0
2018-Jun-23 18:00N 45°37' W 001°02'0 0.0
2018-Jun-23 17:30N 45°37' W 001°02'0 0.0
2018-Jun-23 17:00N 45°37' W 001°02'0 0.0
2018-Jun-23 16:30N 45°37' W 001°02'0 0.0
2018-Jun-23 16:00N 45°37' W 001°02'0 0.0
2018-Jun-23 15:30N 45°37' W 001°02'0 0.0
2018-Jun-23 15:00N 45°37' W 001°02'0 0.0
2018-Jun-23 14:30N 45°37' W 001°02'0 0.0
2018-Jun-23 13:58N 45°37' W 001°02'0 0.0
2018-Jun-23 13:30N 45°37' W 001°02'0 0.0
2018-Jun-23 13:00N 45°37' W 001°02'0 0.4
2018-Jun-23 12:30N 45°37' W 001°02'5 9.6
2018-Jun-23 12:00N 45°34' W 001°07'510.1
2018-Jun-23 11:29N 45°31' W 001°13'5 9.4
2018-Jun-23 11:00N 45°27' W 001°17'6 1.2
2018-Jun-23 05:39N 45°21' W 001°16'1 2.3
2018-Jun-23 05:23N 45°20' W 001°16'1 0.0
2018-Jun-22 08:57N 45°20' W 001°17'1 2.4
2018-Jun-22 08:29N 45°21' W 001°17'2 1.6
2018-Jun-22 07:08N 45°19' W 001°16'0 2.2
2018-Jun-22 07:00N 45°19' W 001°16'1 0.5
2018-Jun-22 05:03N 45°20' W 001°16'0 2.7
2018-Jun-22 04:54N 45°20' W 001°15'2 0.2
2018-Jun-21 18:17N 45°18' W 001°16'0 0.0
2018-Jun-21 17:58N 45°18' W 001°16'0 0.0
2018-Jun-21 17:30N 45°18' W 001°16'0 0.0
2018-Jun-21 17:00N 45°18' W 001°16'2 0.8
2018-Jun-21 14:32N 45°20' W 001°16'0 6.4
2018-Jun-21 14:29N 45°20' W 001°16'0 0.8
2018-Jun-21 13:53N 45°21' W 001°15'2 1.9
2018-Jun-21 13:04N 45°19' W 001°16'0 7.5
2018-Jun-21 13:00N 45°20' W 001°17'1 2.7
2018-Jun-21 12:30N 45°18' W 001°17'3 6.0
2018-Jun-21 11:57N 45°22' W 001°17'2 0.5
2018-Jun-21 07:07N 45°19' W 001°15'0 2.6
2018-Jun-21 07:00N 45°20' W 001°15'1 2.3
2018-Jun-21 06:23N 45°21' W 001°16'1 2.7
2018-Jun-21 05:54N 45°20' W 001°16'1 2.7
2018-Jun-21 05:31N 45°19' W 001°16'1 1.6
2018-Jun-21 05:00N 45°20' W 001°16'1 2.7
2018-Jun-21 04:30N 45°21' W 001°16'1 2.0
2018-Jun-21 04:00N 45°20' W 001°17'1 2.9
2018-Jun-21 03:30N 45°19' W 001°18'0 0.0
2018-Jun-21 03:00N 45°19' W 001°18'0 0.0
2018-Jun-21 02:30N 45°19' W 001°18'0 0.0
2018-Jun-21 02:00N 45°19' W 001°18'0 0.0
2018-Jun-21 01:30N 45°19' W 001°18'0 0.0
2018-Jun-21 01:00N 45°19' W 001°18'0 0.0
2018-Jun-21 00:30N 45°19' W 001°18'0 0.0
2018-Jun-21 00:00N 45°19' W 001°18'0 0.0
2018-Jun-20 23:30N 45°19' W 001°18'0 0.0
2018-Jun-20 23:00N 45°19' W 001°18'0 0.0
2018-Jun-20 22:28N 45°19' W 001°18'0 0.0
2018-Jun-20 22:00N 45°19' W 001°18'0 0.0
2018-Jun-20 21:30N 45°19' W 001°18'0 0.0
2018-Jun-20 21:00N 45°19' W 001°18'0 0.0
2018-Jun-20 20:30N 45°19' W 001°18'0 0.0
2018-Jun-20 20:00N 45°19' W 001°18'0 0.0
2018-Jun-20 19:30N 45°19' W 001°18'0 0.0
2018-Jun-20 19:00N 45°19' W 001°18'0 0.0
2018-Jun-20 18:30N 45°19' W 001°18'0 0.0
2018-Jun-20 18:00N 45°19' W 001°18'0 0.1
2018-Jun-20 17:30N 45°19' W 001°18'0 0.0
2018-Jun-20 17:00N 45°19' W 001°18'0 0.0
2018-Jun-20 16:30N 45°19' W 001°18'0 0.0
2018-Jun-20 15:59N 45°19' W 001°18'3 3.6
2018-Jun-20 15:10N 45°22' W 001°18'1 5.5
2018-Jun-20 15:00N 45°21' W 001°17'1 1.8
2018-Jun-20 14:30N 45°20' W 001°17'4 2.2
2018-Jun-20 12:39N 45°16' W 001°16'2 7.9
2018-Jun-20 12:26N 45°14' W 001°17'5 8.0
2018-Jun-20 11:47N 45°09' W 001°19'2 8.0
2018-Jun-20 11:30N 45°07' W 001°20'1 1.2
2018-Jun-20 10:13N 45°09' W 001°20'0 0.5
2018-Jun-20 09:19N 45°08' W 001°20'1 2.2
2018-Jun-20 08:52N 45°07' W 001°20'1 2.1
2018-Jun-20 08:30N 45°07' W 001°20'0 0.8
2018-Jun-20 07:58N 45°06' W 001°21'3 0.3
2018-Jun-19 22:25N 45°09' W 001°22'0 0.0
2018-Jun-19 22:00N 45°09' W 001°22'0 0.0
2018-Jun-19 21:30N 45°09' W 001°22'0 0.0
2018-Jun-19 21:00N 45°09' W 001°22'0 0.1
2018-Jun-19 20:30N 45°09' W 001°22'0 0.1
2018-Jun-19 19:54N 45°09' W 001°22'0 0.0
2018-Jun-19 18:36N 45°09' W 001°22'0 0.1
2018-Jun-19 18:30N 45°09' W 001°22'0 0.0
2018-Jun-19 18:00N 45°09' W 001°22'0 0.0
2018-Jun-19 17:30N 45°09' W 001°22'0 0.0
2018-Jun-19 17:00N 45°09' W 001°22'0 0.0
2018-Jun-19 16:30N 45°09' W 001°22'18 3.0
2018-Jun-19 10:14N 44°51' W 001°20'2 8.5
2018-Jun-19 10:00N 44°49' W 001°20'4 8.5
2018-Jun-19 09:30N 44°44' W 001°19'4 8.6
2018-Jun-19 09:00N 44°40' W 001°19'4 8.6
2018-Jun-19 08:30N 44°36' W 001°18'3 5.1
2018-Jun-19 08:00N 44°35' W 001°15'4 7.1
2018-Jun-19 07:30N 44°38' W 001°14'4 7.0
2018-Jun-19 07:00N 44°40' W 001°10'1 1.8
2018-Jun-19 06:30N 44°39' W 001°09'0 0.0
2018-Jun-19 06:00N 44°39' W 001°09'0 0.0
2018-Jun-19 05:30N 44°39' W 001°09'  
Track history (hours):
 
Tides and Currents Weather Stations Pressure Air Temp Water Temp Dewpoint Dewpoint Depression Visibility Wind Speed Wind Dir Waves Ship Positions

F/V Atalante 3

Last reported at 2018-Jun-25 07:46 UTC. Time now 2018-Jun-25 15:50 UTC.
Position N 45°21' W 001°21'.

Length 14 m.

Type: Other ship. MMSI: 228211000.

Date/timePositionNaut miles runAvg speedWind from/ knotsBaromVisibWave heightAir tempDewpointWater temp
2018-Jun-25 07:46N 45°21' W 001°21'4 9.2
2018-Jun-25 07:17N 45°22' W 001°15'1 2.5
2018-Jun-25 06:52N 45°21' W 001°14'1 1.7
2018-Jun-25 06:13N 45°22' W 001°15'1 2.6
2018-Jun-25 05:59N 45°22' W 001°16'1 1.4
2018-Jun-25 05:29N 45°22' W 001°17'1 2.4
2018-Jun-25 04:57N 45°22' W 001°15'1 1.4
2018-Jun-25 04:30N 45°22' W 001°16'4 1.1
2018-Jun-25 01:06N 45°20' W 001°21'0 0.0
2018-Jun-25 00:56N 45°20' W 001°21'0 0.0
2018-Jun-24 22:57N 45°20' W 001°21'0 0.0
2018-Jun-24 22:26N 45°20' W 001°21'0 0.0
2018-Jun-24 21:58N 45°20' W 001°21'0 0.0
2018-Jun-24 21:24N 45°20' W 001°21'2 0.2
2018-Jun-24 11:03N 45°22' W 001°19'3 0.7
2018-Jun-24 05:46N 45°19' W 001°16'1 2.5
2018-Jun-24 05:27N 45°20' W 001°16'1 1.0
2018-Jun-24 04:23N 45°19' W 001°15'4 6.8
2018-Jun-24 03:45N 45°24' W 001°16'310.1
2018-Jun-24 03:25N 45°27' W 001°15'410.2
2018-Jun-24 03:00N 45°31' W 001°13'510.5
2018-Jun-24 02:30N 45°34' W 001°06'5 9.2
2018-Jun-24 02:00N 45°37' W 001°02'0 0.1
2018-Jun-24 01:30N 45°37' W 001°02'0 0.0
2018-Jun-24 01:00N 45°37' W 001°02'0 0.0
2018-Jun-24 00:30N 45°37' W 001°02'0 0.0
2018-Jun-24 00:00N 45°37' W 001°02'0 0.0
2018-Jun-23 23:30N 45°37' W 001°02'0 0.0
2018-Jun-23 23:00N 45°37' W 001°02'0 0.0
2018-Jun-23 22:27N 45°37' W 001°02'0 0.0
2018-Jun-23 22:00N 45°37' W 001°02'0 0.0
2018-Jun-23 21:28N 45°37' W 001°02'0 0.0
2018-Jun-23 21:00N 45°37' W 001°02'0 0.0
2018-Jun-23 20:30N 45°37' W 001°02'0 0.0
2018-Jun-23 20:00N 45°37' W 001°02'0 0.0
2018-Jun-23 19:30N 45°37' W 001°02'0 0.0
2018-Jun-23 19:00N 45°37' W 001°02'0 0.0
2018-Jun-23 18:30N 45°37' W 001°02'0 0.0
2018-Jun-23 18:00N 45°37' W 001°02'0 0.0
2018-Jun-23 17:30N 45°37' W 001°02'0 0.0
2018-Jun-23 17:00N 45°37' W 001°02'0 0.0
2018-Jun-23 16:30N 45°37' W 001°02'0 0.0
2018-Jun-23 16:00N 45°37' W 001°02'0 0.0
2018-Jun-23 15:30N 45°37' W 001°02'0 0.0
2018-Jun-23 15:00N 45°37' W 001°02'0 0.0
2018-Jun-23 14:30N 45°37' W 001°02'0 0.0
2018-Jun-23 13:58N 45°37' W 001°02'0 0.0
2018-Jun-23 13:30N 45°37' W 001°02'0 0.0
2018-Jun-23 13:00N 45°37' W 001°02'0 0.4
2018-Jun-23 12:30N 45°37' W 001°02'5 9.6
2018-Jun-23 12:00N 45°34' W 001°07'510.1
2018-Jun-23 11:29N 45°31' W 001°13'5 9.4
2018-Jun-23 11:00N 45°27' W 001°17'6 1.2
2018-Jun-23 05:39N 45°21' W 001°16'1 2.3
2018-Jun-23 05:23N 45°20' W 001°16'1 0.0
2018-Jun-22 08:57N 45°20' W 001°17'1 2.4
2018-Jun-22 08:29N 45°21' W 001°17'2 1.6
2018-Jun-22 07:08N 45°19' W 001°16'0 2.2
2018-Jun-22 07:00N 45°19' W 001°16'1 0.5
2018-Jun-22 05:03N 45°20' W 001°16'0 2.7
2018-Jun-22 04:54N 45°20' W 001°15'2 0.2
2018-Jun-21 18:17N 45°18' W 001°16'0 0.0
2018-Jun-21 17:58N 45°18' W 001°16'0 0.0
2018-Jun-21 17:30N 45°18' W 001°16'0 0.0
2018-Jun-21 17:00N 45°18' W 001°16'2 0.8
2018-Jun-21 14:32N 45°20' W 001°16'0 6.4
2018-Jun-21 14:29N 45°20' W 001°16'0 0.8
2018-Jun-21 13:53N 45°21' W 001°15'2 1.9
2018-Jun-21 13:04N 45°19' W 001°16'0 7.5
2018-Jun-21 13:00N 45°20' W 001°17'1 2.7
2018-Jun-21 12:30N 45°18' W 001°17'3 6.0
2018-Jun-21 11:57N 45°22' W 001°17'2 0.5
2018-Jun-21 07:07N 45°19' W 001°15'0 2.6
2018-Jun-21 07:00N 45°20' W 001°15'1 2.3
2018-Jun-21 06:23N 45°21' W 001°16'1 2.7
2018-Jun-21 05:54N 45°20' W 001°16'1 2.7
2018-Jun-21 05:31N 45°19' W 001°16'1 1.6
2018-Jun-21 05:00N 45°20' W 001°16'1 2.7
2018-Jun-21 04:30N 45°21' W 001°16'1 2.0
2018-Jun-21 04:00N 45°20' W 001°17'1 2.9
2018-Jun-21 03:30N 45°19' W 001°18'0 0.0
2018-Jun-21 03:00N 45°19' W 001°18'0 0.0
2018-Jun-21 02:30N 45°19' W 001°18'0 0.0
2018-Jun-21 02:00N 45°19' W 001°18'0 0.0
2018-Jun-21 01:30N 45°19' W 001°18'0 0.0
2018-Jun-21 01:00N 45°19' W 001°18'0 0.0
2018-Jun-21 00:30N 45°19' W 001°18'0 0.0
2018-Jun-21 00:00N 45°19' W 001°18'0 0.0
2018-Jun-20 23:30N 45°19' W 001°18'0 0.0
2018-Jun-20 23:00N 45°19' W 001°18'0 0.0
2018-Jun-20 22:28N 45°19' W 001°18'0 0.0
2018-Jun-20 22:00N 45°19' W 001°18'0 0.0
2018-Jun-20 21:30N 45°19' W 001°18'0 0.0
2018-Jun-20 21:00N 45°19' W 001°18'0 0.0
2018-Jun-20 20:30N 45°19' W 001°18'0 0.0
2018-Jun-20 20:00N 45°19' W 001°18'0 0.0
2018-Jun-20 19:30N 45°19' W 001°18'0 0.0
2018-Jun-20 19:00N 45°19' W 001°18'0 0.0
2018-Jun-20 18:30N 45°19' W 001°18'0 0.0
2018-Jun-20 18:00N 45°19' W 001°18'0 0.1
2018-Jun-20 17:30N 45°19' W 001°18'0 0.0
2018-Jun-20 17:00N 45°19' W 001°18'0 0.0
2018-Jun-20 16:30N 45°19' W 001°18'0 0.0
2018-Jun-20 15:59N 45°19' W 001°18'3 3.6
2018-Jun-20 15:10N 45°22' W 001°18'1 5.5
2018-Jun-20 15:00N 45°21' W 001°17'1 1.8
2018-Jun-20 14:30N 45°20' W 001°17'4 2.2
2018-Jun-20 12:39N 45°16' W 001°16'2 7.9
2018-Jun-20 12:26N 45°14' W 001°17'5 8.0
2018-Jun-20 11:47N 45°09' W 001°19'2 8.0
2018-Jun-20 11:30N 45°07' W 001°20'1 1.2
2018-Jun-20 10:13N 45°09' W 001°20'0 0.5
2018-Jun-20 09:19N 45°08' W 001°20'1 2.2
2018-Jun-20 08:52N 45°07' W 001°20'1 2.1
2018-Jun-20 08:30N 45°07' W 001°20'0 0.8
2018-Jun-20 07:58N 45°06' W 001°21'3 0.3
2018-Jun-19 22:25N 45°09' W 001°22'0 0.0
2018-Jun-19 22:00N 45°09' W 001°22'0 0.0
2018-Jun-19 21:30N 45°09' W 001°22'0 0.0
2018-Jun-19 21:00N 45°09' W 001°22'0 0.1
2018-Jun-19 20:30N 45°09' W 001°22'0 0.1
2018-Jun-19 19:54N 45°09' W 001°22'0 0.0
2018-Jun-19 18:36N 45°09' W 001°22'0 0.1
2018-Jun-19 18:30N 45°09' W 001°22'0 0.0
2018-Jun-19 18:00N 45°09' W 001°22'0 0.0
2018-Jun-19 17:30N 45°09' W 001°22'0 0.0
2018-Jun-19 17:00N 45°09' W 001°22'0 0.0
2018-Jun-19 16:30N 45°09' W 001°22'18 3.0
2018-Jun-19 10:14N 44°51' W 001°20'2 8.5
2018-Jun-19 10:00N 44°49' W 001°20'4 8.5
2018-Jun-19 09:30N 44°44' W 001°19'4 8.6
2018-Jun-19 09:00N 44°40' W 001°19'4 8.6
2018-Jun-19 08:30N 44°36' W 001°18'3 5.1
2018-Jun-19 08:00N 44°35' W 001°15'4 7.1
2018-Jun-19 07:30N 44°38' W 001°14'4 7.0
2018-Jun-19 07:00N 44°40' W 001°10'1 1.8
2018-Jun-19 06:30N 44°39' W 001°09'0 0.0
2018-Jun-19 06:00N 44°39' W 001°09'0 0.0
2018-Jun-19 05:30N 44°39' W 001°09'  

Dump ship's entire track history